Terminal Aerodrome Forecast
Issued by NWS

Home | Current Version | Previous Version | Text Only | Print | Product List | Glossary On
Versions: 1 2 3 4 5 6 7 8 9 10 11 12 13 14 15 16 17 18 19 20 21 22 23 24 25 26
121
FTUS43 KLOT 011726
TAFORD
TAF
KORD 011726Z 0118/0224 29015G25KT P6SM VCSH BKN012 OVC050
     FM012000 30020G30KT 5SM -RASN BR SCT008 OVC012
      TEMPO 0120/0123 BKN008
     FM012300 31020G30KT 6SM -SHSN BR SCT008 OVC015
     FM020100 31016G25KT P6SM BKN025
     FM020500 31010KT P6SM BKN035
     FM021800 26008KT P6SM OVC035 PROB30 0218/0224 -SHSN OVC025=

USA.gov is the U.S. government's official web portal to all federal, state and local government web resources and services.